createdAt,value
2018-09-08T00:01:25.958Z,2.50
2018-09-08T00:03:54.028Z,2.87
2018-09-08T00:06:27.493Z,3.10
2018-09-08T00:08:55.720Z,2.30
2018-09-08T00:11:23.875Z,2.47
2018-09-08T00:13:51.947Z,2.30
2018-09-08T00:16:25.520Z,2.30
2018-09-08T00:18:59.099Z,1.77
2018-09-08T00:21:32.399Z,2.00
2018-09-08T00:24:05.804Z,1.77
2018-09-08T00:26:33.157Z,3.20
2018-09-08T00:29:07.786Z,2.00
2018-09-08T00:31:35.832Z,1.67
2018-09-08T00:34:03.990Z,1.97
2018-09-08T00:36:32.050Z,1.50
2018-09-08T00:39:00.212Z,1.73
2018-09-08T00:41:28.306Z,2.40
2018-09-08T00:43:57.217Z,2.00
2018-09-08T00:46:25.282Z,1.87
2018-09-08T00:48:53.413Z,1.80
2018-09-08T00:51:21.509Z,1.80
2018-09-08T00:53:49.562Z,1.80
2018-09-08T00:56:17.601Z,1.60
2018-09-08T00:58:51.098Z,1.83
2018-09-08T01:01:19.477Z,1.30
2018-09-08T01:03:47.850Z,1.30
2018-09-08T01:06:15.902Z,1.50
2018-09-08T01:08:43.955Z,1.80
2018-09-08T01:11:12.038Z,1.10
2018-09-08T01:13:40.125Z,1.70
2018-09-08T01:16:08.186Z,1.70
2018-09-08T01:18:37.073Z,1.50
2018-09-08T01:21:06.795Z,1.27
2018-09-08T01:23:34.856Z,1.53
2018-09-08T01:26:03.067Z,1.60
2018-09-08T01:28:31.133Z,1.40
2018-09-08T01:30:59.190Z,1.43
2018-09-08T01:33:27.439Z,1.57
2018-09-08T01:35:55.912Z,1.40
2018-09-08T01:38:24.139Z,1.57
2018-09-08T01:40:52.286Z,1.50
2018-09-08T01:43:20.377Z,1.77
2018-09-08T01:45:48.466Z,1.40
2018-09-08T01:48:16.542Z,2.00
2018-09-08T01:50:44.625Z,1.70
2018-09-08T01:53:12.741Z,1.67
2018-09-08T01:55:40.821Z,1.67
2018-09-08T01:58:08.931Z,1.60
2018-09-08T02:00:37.680Z,1.90
2018-09-08T02:03:05.803Z,1.30
2018-09-08T02:05:33.858Z,1.10
2018-09-08T02:08:01.950Z,2.03
2018-09-08T02:10:30.039Z,1.80
2018-09-08T02:12:58.141Z,1.80
2018-09-08T02:15:26.205Z,1.83
2018-09-08T02:17:54.306Z,1.70
2018-09-08T02:20:22.393Z,2.13
2018-09-08T02:22:50.512Z,1.67
2018-09-08T02:25:18.603Z,1.83
2018-09-08T02:27:46.670Z,2.40
2018-09-08T02:30:14.768Z,1.50
2018-09-08T02:32:42.927Z,1.40
2018-09-08T02:35:11.030Z,1.53
2018-09-08T02:37:39.103Z,1.80
2018-09-08T02:40:07.166Z,1.70
2018-09-08T02:42:35.309Z,1.70
2018-09-08T02:45:03.408Z,1.50
2018-09-08T02:47:31.576Z,2.03
2018-09-08T02:50:11.218Z,1.73
2018-09-08T02:52:38.341Z,2.10
2018-09-08T02:55:05.928Z,1.90
2018-09-08T02:57:33.054Z,1.90
2018-09-08T03:00:00.272Z,2.23
2018-09-08T03:02:27.427Z,2.20
2018-09-08T03:04:54.678Z,2.17
2018-09-08T03:07:22.018Z,1.97
2018-09-08T03:09:49.162Z,1.80
2018-09-08T03:12:16.981Z,2.60
2018-09-08T03:14:44.133Z,2.60
2018-09-08T03:17:11.303Z,2.43
2018-09-08T03:19:38.825Z,1.80
2018-09-08T03:22:06.012Z,2.53
2018-09-08T03:24:33.292Z,2.50
2018-09-08T03:27:00.437Z,2.83
2018-09-08T03:29:27.736Z,3.00
2018-09-08T03:31:54.892Z,2.93
2018-09-08T03:34:22.077Z,2.63
2018-09-08T03:36:49.266Z,2.50
2018-09-08T03:39:16.417Z,2.50
2018-09-08T03:41:43.631Z,2.67
2018-09-08T03:44:10.779Z,2.30
2018-09-08T03:46:37.924Z,2.97
2018-09-08T03:49:05.082Z,2.73
2018-09-08T03:51:32.253Z,2.70
2018-09-08T03:53:59.465Z,2.57
2018-09-08T03:56:26.614Z,2.43
2018-09-08T03:58:54.261Z,2.53
2018-09-08T04:01:21.549Z,2.97
2018-09-08T04:03:49.970Z,2.70
2018-09-08T04:06:19.073Z,2.97
2018-09-08T04:08:47.189Z,3.43
2018-09-08T04:11:15.531Z,4.00
2018-09-08T04:13:43.865Z,3.33
2018-09-08T04:16:12.017Z,2.73
2018-09-08T04:18:40.205Z,4.47
2018-09-08T04:21:08.270Z,3.77
2018-09-08T04:23:36.701Z,3.97
2018-09-08T04:26:04.809Z,3.27
2018-09-08T04:28:33.263Z,2.70
2018-09-08T04:31:02.091Z,3.30
2018-09-08T04:33:30.263Z,3.70
2018-09-08T04:35:58.345Z,3.67
2018-09-08T04:38:26.389Z,3.53
2018-09-08T04:40:54.502Z,3.80
2018-09-08T04:43:22.553Z,3.80
2018-09-08T04:45:50.631Z,3.97
2018-09-08T04:48:18.683Z,4.30
2018-09-08T04:50:46.793Z,4.00
2018-09-08T04:53:14.869Z,3.90
2018-09-08T04:55:42.959Z,4.30
2018-09-08T04:58:11.046Z,4.80
2018-09-08T05:00:39.118Z,3.80
2018-09-08T05:03:07.431Z,4.37
2018-09-08T05:05:35.695Z,4.20
2018-09-08T05:08:04.071Z,4.33
2018-09-08T05:10:32.350Z,4.17
2018-09-08T05:13:00.556Z,3.97
2018-09-08T05:15:28.634Z,4.10
2018-09-08T05:17:56.720Z,4.90
2018-09-08T05:20:24.761Z,4.40
2018-09-08T05:22:52.794Z,4.00
2018-09-08T05:25:20.904Z,4.30
2018-09-08T05:27:49.011Z,4.73
2018-09-08T05:30:17.080Z,4.93
2018-09-08T05:32:45.154Z,4.40
2018-09-08T05:35:13.221Z,4.60
2018-09-08T05:37:41.292Z,3.80
2018-09-08T05:40:10.487Z,5.63
2018-09-08T05:42:38.669Z,5.60
2018-09-08T05:45:06.728Z,4.63
2018-09-08T05:47:34.909Z,5.60
2018-09-08T05:50:02.961Z,5.23
2018-09-08T05:52:31.034Z,5.37
2018-09-08T05:55:00.369Z,4.67
2018-09-08T05:57:29.649Z,5.00
2018-09-08T05:59:59.855Z,4.30
2018-09-08T06:02:27.885Z,5.17
2018-09-08T06:04:55.957Z,4.60
2018-09-08T06:07:24.036Z,6.80
2018-09-08T06:09:52.109Z,5.20
2018-09-08T06:12:20.149Z,6.50
2018-09-08T06:14:48.200Z,5.03
2018-09-08T06:17:16.281Z,5.07
2018-09-08T06:19:44.375Z,4.67
2018-09-08T06:22:12.375Z,5.40
2018-09-08T06:24:40.457Z,5.33
2018-09-08T06:27:08.534Z,4.57
2018-09-08T06:29:36.594Z,5.17
2018-09-08T06:32:04.798Z,4.50
2018-09-08T06:34:32.930Z,5.00
2018-09-08T06:37:00.985Z,5.63
2018-09-08T06:39:29.046Z,5.90
2018-09-08T06:41:57.218Z,5.50
2018-09-08T06:44:25.273Z,5.20
2018-09-08T06:46:53.349Z,6.23
2018-09-08T06:49:21.444Z,4.90
2018-09-08T06:51:50.031Z,5.03
2018-09-08T06:54:18.118Z,6.47
2018-09-08T06:56:46.273Z,5.87
2018-09-08T06:59:14.323Z,4.97
2018-09-08T07:01:42.385Z,6.20
2018-09-08T07:04:10.437Z,5.17
2018-09-08T07:06:38.559Z,6.30
2018-09-08T07:09:08.415Z,4.93
2018-09-08T07:11:36.453Z,5.23
2018-09-08T07:14:04.526Z,4.50
2018-09-08T07:16:33.381Z,5.17
2018-09-08T07:19:02.090Z,5.30
2018-09-08T07:21:30.158Z,4.60
2018-09-08T07:23:58.221Z,5.17
2018-09-08T07:26:26.291Z,4.17
2018-09-08T07:28:54.377Z,5.53
2018-09-08T07:31:22.438Z,4.87
2018-09-08T07:33:50.672Z,5.17
2018-09-08T07:36:19.273Z,6.70
2018-09-08T07:38:47.362Z,4.90
2018-09-08T07:41:15.451Z,4.90
2018-09-08T07:43:43.662Z,4.67
2018-09-08T07:46:11.782Z,4.87
2018-09-08T07:48:39.825Z,4.40
2018-09-08T07:51:07.945Z,5.20
2018-09-08T07:53:36.017Z,4.40
2018-09-08T07:56:04.135Z,4.90
2018-09-08T07:58:32.191Z,4.47
2018-09-08T08:01:00.596Z,4.40
2018-09-08T08:03:28.671Z,4.17
2018-09-08T08:05:56.795Z,4.70
2018-09-08T08:08:24.907Z,4.93
2018-09-08T08:10:53.002Z,5.00
2018-09-08T08:13:21.095Z,4.60
2018-09-08T08:15:49.138Z,4.50
2018-09-08T08:18:17.221Z,5.20
2018-09-08T08:20:45.300Z,5.30
2018-09-08T08:23:13.394Z,4.43
2018-09-08T08:25:41.440Z,4.40
2018-09-08T08:28:09.522Z,5.23
2018-09-08T08:30:37.583Z,4.37
2018-09-08T08:33:05.694Z,4.77
2018-09-08T08:35:33.730Z,6.20
2018-09-08T08:38:01.873Z,4.37
2018-09-08T08:40:29.921Z,2.90
2018-09-08T08:42:57.974Z,4.87
2018-09-08T08:45:26.125Z,4.27
2018-09-08T08:47:54.174Z,4.80
2018-09-08T08:50:33.601Z,3.90
2018-09-08T08:53:13.401Z,4.73
2018-09-08T08:55:41.488Z,4.83
2018-09-08T08:58:09.533Z,4.57
2018-09-08T09:00:37.608Z,4.47
2018-09-08T09:03:05.699Z,4.40
2018-09-08T09:05:33.770Z,4.87
2018-09-08T09:08:01.854Z,5.13
2018-09-08T09:10:29.909Z,4.50
2018-09-08T09:12:58.199Z,4.80
2018-09-08T09:15:26.652Z,4.30
2018-09-08T09:17:54.316Z,4.10
2018-09-08T09:20:33.833Z,4.30
2018-09-08T09:24:18.169Z,4.77
2018-09-08T09:26:46.838Z,3.93
2018-09-08T09:29:15.021Z,3.90
2018-09-08T09:31:43.120Z,4.80
2018-09-08T09:34:11.769Z,4.70
2018-09-08T09:36:40.757Z,4.17
2018-09-08T09:39:10.066Z,3.63
2018-09-08T09:41:38.333Z,3.70
2018-09-08T09:44:06.482Z,4.10
2018-09-08T09:46:34.541Z,3.00
2018-09-08T09:49:02.932Z,3.67
2018-09-08T09:51:30.970Z,3.47
2018-09-08T09:53:59.069Z,4.10
2018-09-08T09:56:27.574Z,3.73
2018-09-08T09:58:55.864Z,3.40
2018-09-08T10:01:29.419Z,3.57
2018-09-08T10:03:57.739Z,3.97
2018-09-08T10:06:25.827Z,2.83
2018-09-08T10:08:53.905Z,3.33
2018-09-08T10:11:22.037Z,2.63
2018-09-08T10:13:50.090Z,2.67
2018-09-08T10:16:18.858Z,2.47
2018-09-08T10:18:46.931Z,2.87
2018-09-08T10:21:14.974Z,2.67
2018-09-08T10:24:04.341Z,2.87
2018-09-08T10:26:11.146Z,2.50
2018-09-08T10:28:39.277Z,2.87
2018-09-08T10:31:07.363Z,3.40
2018-09-08T10:33:35.421Z,2.93
2018-09-08T10:36:03.454Z,2.90
2018-09-08T10:38:31.531Z,2.20
2018-09-08T10:40:59.604Z,2.47
2018-09-08T10:43:28.909Z,2.27
2018-09-08T10:45:56.964Z,2.37
2018-09-08T10:48:25.083Z,1.77
2018-09-08T10:50:53.239Z,2.20
2018-09-08T10:53:21.249Z,2.00
2018-09-08T10:55:49.295Z,2.67
2018-09-08T10:58:18.037Z,2.27
2018-09-08T11:00:46.090Z,2.40
2018-09-08T11:03:14.134Z,2.37
2018-09-08T11:05:42.206Z,2.60
2018-09-08T11:08:10.293Z,3.77
2018-09-08T11:10:38.359Z,2.40
2018-09-08T11:13:06.485Z,2.40
2018-09-08T11:15:34.614Z,1.93
2018-09-08T11:18:02.729Z,2.00
2018-09-08T11:20:30.936Z,1.80
2018-09-08T11:22:58.991Z,2.27
2018-09-08T11:25:27.128Z,2.10
2018-09-08T11:27:55.204Z,2.47
2018-09-08T11:30:23.261Z,2.80
2018-09-08T11:32:51.345Z,1.70
2018-09-08T11:35:19.406Z,2.47
2018-09-08T11:37:47.522Z,2.10
2018-09-08T11:40:15.624Z,2.57
2018-09-08T11:42:43.755Z,1.90
2018-09-08T11:45:11.880Z,2.90
2018-09-08T11:47:40.001Z,2.97
2018-09-08T11:50:08.114Z,2.63
2018-09-08T11:52:36.245Z,2.27
2018-09-08T11:55:04.303Z,2.63
2018-09-08T11:57:32.377Z,2.30
2018-09-08T12:00:00.425Z,2.57
2018-09-08T12:02:28.502Z,2.40
2018-09-08T12:04:57.153Z,1.90
2018-09-08T12:07:25.470Z,2.20
2018-09-08T12:09:53.734Z,1.50
2018-09-08T12:12:21.810Z,2.87
2018-09-08T12:14:49.869Z,2.93
2018-09-08T12:17:18.778Z,1.80
2018-09-08T12:19:46.838Z,1.63
2018-09-08T12:22:14.967Z,1.80
2018-09-08T12:24:43.046Z,1.57
2018-09-08T12:27:11.153Z,1.70
2018-09-08T12:29:39.261Z,2.07
2018-09-08T12:32:07.362Z,2.30
2018-09-08T12:34:35.398Z,1.93
2018-09-08T12:37:03.529Z,2.20
2018-09-08T12:39:31.735Z,2.80
2018-09-08T12:41:59.785Z,1.70
2018-09-08T12:44:27.821Z,2.10
2018-09-08T12:46:55.904Z,2.23
2018-09-08T12:49:23.948Z,2.13
2018-09-08T12:51:52.314Z,1.70
2018-09-08T12:54:20.613Z,2.00
2018-09-08T12:56:48.689Z,1.70
2018-09-08T12:59:16.854Z,1.63
2018-09-08T13:01:44.885Z,1.80
2018-09-08T13:04:12.973Z,1.97
2018-09-08T13:06:41.074Z,1.70
2018-09-08T13:09:09.149Z,1.40
2018-09-08T13:11:37.237Z,1.37
2018-09-08T13:14:05.306Z,1.67
2018-09-08T13:16:33.342Z,1.33
2018-09-08T13:19:01.424Z,1.63
2018-09-08T13:21:29.483Z,1.83
2018-09-08T13:23:57.553Z,1.60
2018-09-08T13:26:25.614Z,1.67
2018-09-08T13:28:53.690Z,1.93
2018-09-08T13:31:21.730Z,1.60
2018-09-08T13:33:49.821Z,1.77
2018-09-08T13:36:17.953Z,1.40
2018-09-08T13:38:45.990Z,1.50
2018-09-08T13:41:14.037Z,1.40
2018-09-08T13:43:42.265Z,1.90
2018-09-08T13:46:10.346Z,1.50
2018-09-08T13:48:38.377Z,2.03
2018-09-08T13:51:06.450Z,1.83
2018-09-08T13:53:34.533Z,2.27
2018-09-08T13:56:02.605Z,2.07
2018-09-08T13:58:30.662Z,2.00
2018-09-08T14:00:58.750Z,1.70
2018-09-08T14:03:26.786Z,1.63
2018-09-08T14:05:54.857Z,2.13
2018-09-08T14:08:22.902Z,2.17
2018-09-08T14:10:50.949Z,2.00
2018-09-08T14:13:19.013Z,2.03
2018-09-08T14:15:47.362Z,2.50
2018-09-08T14:18:15.421Z,1.80
2018-09-08T14:20:43.473Z,2.37
2018-09-08T14:23:11.565Z,1.90
2018-09-08T14:25:39.690Z,1.80
2018-09-08T14:28:07.742Z,1.90
2018-09-08T14:30:36.424Z,1.87
2018-09-08T14:33:04.498Z,1.83
2018-09-08T14:35:32.613Z,1.97
2018-09-08T14:38:00.707Z,2.43
2018-09-08T14:40:28.858Z,2.20
2018-09-08T14:42:57.316Z,2.57
2018-09-08T14:45:25.571Z,1.90
2018-09-08T14:47:53.698Z,2.40
2018-09-08T14:50:21.711Z,2.70
2018-09-08T14:52:49.786Z,3.23
2018-09-08T14:55:17.915Z,2.10
2018-09-08T14:57:45.959Z,2.30
2018-09-08T15:00:13.990Z,1.93
2018-09-08T15:02:42.063Z,2.60
2018-09-08T15:05:10.108Z,1.73
2018-09-08T15:07:38.239Z,1.90
2018-09-08T15:10:06.504Z,2.40
2018-09-08T15:12:34.586Z,1.80
2018-09-08T15:15:03.037Z,2.70
2018-09-08T15:17:31.093Z,2.20
2018-09-08T15:19:59.168Z,2.30
2018-09-08T15:22:27.243Z,2.30
2018-09-08T15:24:55.330Z,2.87
2018-09-08T15:27:23.433Z,2.83
2018-09-08T15:29:51.471Z,2.67
2018-09-08T15:32:19.673Z,2.60
2018-09-08T15:34:47.726Z,2.23
2018-09-08T15:37:15.998Z,2.23
2018-09-08T15:39:44.067Z,3.17
2018-09-08T15:42:12.125Z,2.50
2018-09-08T15:44:40.173Z,2.40
2018-09-08T15:47:08.237Z,3.00
2018-09-08T15:49:36.334Z,2.30
2018-09-08T15:52:04.416Z,2.30
2018-09-08T15:54:32.650Z,2.40
2018-09-08T15:57:00.755Z,2.10
2018-09-08T15:59:28.786Z,2.10
2018-09-08T16:01:56.947Z,2.47
2018-09-08T16:04:25.032Z,2.00
2018-09-08T16:06:53.066Z,2.73
2018-09-08T16:09:21.103Z,2.80
2018-09-08T16:11:49.141Z,2.60
2018-09-08T16:14:17.226Z,1.97
2018-09-08T16:16:45.246Z,2.60
2018-09-08T16:19:13.295Z,2.57
2018-09-08T16:21:41.863Z,2.60
2018-09-08T16:24:10.104Z,2.37
2018-09-08T16:26:38.130Z,2.30
2018-09-08T16:29:06.213Z,2.70
2018-09-08T16:31:34.263Z,2.67
2018-09-08T16:34:02.349Z,3.10
2018-09-08T16:36:31.390Z,2.50
2018-09-08T16:38:59.485Z,2.50
2018-09-08T16:41:27.541Z,3.27
2018-09-08T16:43:55.574Z,2.80
2018-09-08T16:46:23.633Z,2.87
2018-09-08T16:48:51.702Z,3.57
2018-09-08T16:51:19.743Z,2.77
2018-09-08T16:53:47.857Z,2.83
2018-09-08T16:56:16.380Z,2.73
2018-09-08T16:58:44.426Z,3.10
2018-09-08T17:01:12.465Z,3.00
2018-09-08T17:03:40.596Z,3.30
2018-09-08T17:06:08.654Z,2.53
2018-09-08T17:08:36.706Z,3.40
2018-09-08T17:11:04.738Z,2.63
2018-09-08T17:13:32.786Z,2.80
2018-09-08T17:16:00.838Z,2.00
2018-09-08T17:18:28.908Z,2.50
2018-09-08T17:20:56.937Z,2.97
2018-09-08T17:23:25.006Z,2.93
2018-09-08T17:25:53.119Z,2.87
2018-09-08T17:28:21.305Z,3.10
2018-09-08T17:30:49.979Z,2.57
2018-09-08T17:33:18.030Z,2.57
2018-09-08T17:35:46.081Z,3.50
2018-09-08T17:38:14.122Z,2.47
2018-09-08T17:40:42.186Z,2.90
2018-09-08T17:43:10.306Z,2.83
2018-09-08T17:45:38.511Z,3.33
2018-09-08T17:48:06.596Z,3.40
2018-09-08T17:50:34.703Z,3.00
2018-09-08T17:53:02.769Z,2.57
2018-09-08T17:55:30.859Z,2.73
2018-09-08T17:57:58.990Z,3.07
2018-09-08T18:00:27.039Z,2.70
2018-09-08T18:02:55.161Z,3.10
2018-09-08T18:05:23.226Z,3.53
2018-09-08T18:07:51.337Z,4.07
2018-09-08T18:10:19.406Z,3.27
2018-09-08T18:12:47.468Z,4.13
2018-09-08T18:15:15.588Z,3.27
2018-09-08T18:17:43.686Z,2.37
2018-09-08T18:20:11.756Z,3.80
2018-09-08T18:22:39.850Z,3.50
2018-09-08T18:25:08.018Z,2.90
2018-09-08T18:27:37.101Z,2.60
2018-09-08T18:30:05.537Z,2.50
2018-09-08T18:32:33.620Z,2.67
2018-09-08T18:35:01.659Z,2.70
2018-09-08T18:37:29.815Z,2.90
2018-09-08T18:39:58.010Z,3.40
2018-09-08T18:42:26.120Z,3.10
2018-09-08T18:44:54.452Z,3.07
2018-09-08T18:47:22.571Z,3.30
2018-09-08T18:49:50.659Z,2.93
2018-09-08T18:52:18.746Z,3.20
2018-09-08T18:54:46.806Z,3.00
2018-09-08T18:57:14.874Z,4.00
2018-09-08T18:59:43.011Z,3.47
2018-09-08T19:02:11.128Z,3.97
2018-09-08T19:04:39.334Z,2.70
2018-09-08T19:07:07.493Z,4.03
2018-09-08T19:09:35.606Z,3.30
2018-09-08T19:12:03.685Z,2.90
2018-09-08T19:14:37.275Z,4.00
2018-09-08T19:17:05.549Z,3.80
2018-09-08T19:19:33.662Z,3.90
2018-09-08T19:22:01.739Z,3.10
2018-09-08T19:24:35.335Z,3.67
2018-09-08T19:27:03.422Z,3.00
2018-09-08T19:29:36.920Z,3.77
2018-09-08T19:32:05.070Z,3.33
2018-09-08T19:34:33.169Z,3.70
2018-09-08T19:37:01.854Z,3.80
2018-09-08T19:39:29.922Z,3.93
2018-09-08T19:41:58.011Z,12.70
2018-09-08T19:44:26.166Z,7.33
2018-09-08T19:46:59.507Z,3.67
2018-09-08T19:49:27.579Z,8.83
2018-09-08T19:51:55.724Z,4.47
2018-09-08T19:54:23.796Z,5.00
2018-09-08T19:56:57.431Z,6.17
2018-09-08T19:59:25.505Z,4.80
2018-09-08T20:01:53.564Z,4.20
2018-09-08T20:04:21.667Z,9.77
2018-09-08T20:06:49.728Z,6.50
2018-09-08T20:09:17.869Z,5.40
2018-09-08T20:11:45.906Z,4.70
2018-09-08T20:14:13.988Z,4.47
2018-09-08T20:16:42.134Z,4.40
2018-09-08T20:19:10.245Z,5.03
2018-09-08T20:21:38.362Z,6.97
2018-09-08T20:24:06.432Z,5.73
2018-09-08T20:26:34.573Z,8.37
2018-09-08T20:29:02.582Z,6.20
2018-09-08T20:31:30.665Z,5.07
2018-09-08T20:33:58.710Z,4.97
2018-09-08T20:36:26.809Z,5.00
2018-09-08T20:38:54.882Z,5.67
2018-09-08T20:41:22.941Z,4.90
2018-09-08T20:43:51.009Z,5.40
2018-09-08T20:46:19.665Z,5.30
2018-09-08T20:48:48.001Z,10.93
2018-09-08T20:51:16.085Z,6.07
2018-09-08T20:53:44.165Z,5.53
2018-09-08T20:56:12.869Z,6.20
2018-09-08T20:58:41.234Z,6.53
2018-09-08T21:01:09.316Z,5.60
2018-09-08T21:03:37.415Z,5.90
2018-09-08T21:06:05.455Z,7.27
2018-09-08T21:08:36.222Z,6.03
2018-09-08T21:11:04.988Z,5.17
2018-09-08T21:13:33.387Z,7.37
2018-09-08T21:16:01.647Z,7.00
2018-09-08T21:18:29.782Z,6.10
2018-09-08T21:20:57.870Z,9.63
2018-09-08T21:23:26.121Z,6.20
2018-09-08T21:25:54.126Z,5.60
2018-09-08T21:28:22.512Z,5.57
2018-09-08T21:30:50.662Z,6.53
2018-09-08T21:33:18.758Z,9.57
2018-09-08T21:35:46.830Z,6.67
2018-09-08T21:38:14.993Z,5.80
2018-09-08T21:40:43.087Z,7.57
2018-09-08T21:43:11.149Z,11.77
2018-09-08T21:45:39.201Z,6.27
2018-09-08T21:48:07.270Z,10.70
2018-09-08T21:50:35.322Z,5.73
2018-09-08T21:53:03.378Z,7.57
2018-09-08T21:55:31.857Z,6.30
2018-09-08T21:57:59.916Z,5.80
2018-09-08T22:00:27.988Z,13.73
2018-09-08T22:02:56.074Z,7.17
2018-09-08T22:05:24.138Z,6.27
2018-09-08T22:07:52.167Z,5.50
2018-09-08T22:10:20.213Z,5.90
2018-09-08T22:12:48.262Z,5.63
2018-09-08T22:15:16.320Z,6.70
2018-09-08T22:17:44.365Z,8.10
2018-09-08T22:20:12.589Z,6.60
2018-09-08T22:22:40.623Z,7.27
2018-09-08T22:25:08.733Z,6.07
2018-09-08T22:27:36.960Z,7.87
2018-09-08T22:30:05.156Z,6.40
2018-09-08T22:32:33.181Z,6.70
2018-09-08T22:35:01.223Z,5.10
2018-09-08T22:37:29.277Z,6.23
2018-09-08T22:39:57.354Z,5.13
2018-09-08T22:42:25.420Z,4.87
2018-09-08T22:44:53.473Z,4.90
2018-09-08T22:47:21.522Z,4.57
2018-09-08T22:49:49.569Z,4.30
2018-09-08T22:52:17.629Z,4.17
2018-09-08T22:54:46.380Z,4.03
2018-09-08T22:57:14.414Z,6.20
2018-09-08T22:59:42.545Z,4.93
2018-09-08T23:02:10.640Z,4.63
2018-09-08T23:04:38.690Z,5.07
2018-09-08T23:07:06.734Z,5.27
2018-09-08T23:09:34.786Z,8.20
2018-09-08T23:12:02.871Z,5.30
2018-09-08T23:14:30.910Z,4.70
2018-09-08T23:16:58.965Z,5.27
2018-09-08T23:19:27.026Z,8.70
2018-09-08T23:21:55.077Z,7.57
2018-09-08T23:24:23.146Z,6.67
2018-09-08T23:26:51.216Z,5.40
2018-09-08T23:29:19.265Z,4.30
2018-09-08T23:31:47.343Z,7.40
2018-09-08T23:34:15.545Z,4.30
2018-09-08T23:36:43.664Z,5.20
2018-09-08T23:39:11.716Z,4.40
2018-09-08T23:41:39.763Z,4.30
2018-09-08T23:44:07.817Z,7.00
2018-09-08T23:46:35.866Z,5.30
2018-09-08T23:49:03.908Z,5.70
2018-09-08T23:51:32.005Z,5.30
2018-09-08T23:54:00.060Z,4.77
2018-09-08T23:56:28.983Z,5.23
2018-09-08T23:58:57.031Z,5.07
